Venus, Texas
Current Conditions -  °F | °C
As of 4:55 AM on Friday 28 Nov 2014 (Local Time) from KJWY Reporting Station
Clear Clear  
Wind Chill: 37°   Ceiling: Unl
Heat Index: 41°   Visibility: 10mi
Dew Point: 32°   Wind: 7mph
Humidity: 70%   Direction: 160°SSE
Pressure: 30.3"   Gusts: NA
Location:  32.43°N, 97.1°W
Report Text: KJWY 281055Z AUTO 16006KT 10SM CLR 05/00 A3030 RMK AO2 T00510000
Loading
Personal Weather Stations






























Interactive Weather Map New forecast layout! Learn more

10-Day Weather Forecast

Advertisements
Track Severe Weather on mobile